sensor_id;sensor_type;location;lat;lon;timestamp;P1;durP1;ratioP1;P2;durP2;ratioP2
27794;SDS011;15176;50.844;4.412;2023-06-19T00:02:06;8.38;;;3.95;;
27794;SDS011;15176;50.844;4.412;2023-06-19T00:04:32;5.65;;;3.38;;
27794;SDS011;15176;50.844;4.412;2023-06-19T00:06:59;6.57;;;3.88;;
27794;SDS011;15176;50.844;4.412;2023-06-19T00:09:26;5.90;;;3.75;;
27794;SDS011;15176;50.844;4.412;2023-06-19T00:11:52;7.53;;;4.05;;
27794;SDS011;15176;50.844;4.412;2023-06-19T00:14:18;7.30;;;3.92;;
27794;SDS011;15176;50.844;4.412;2023-06-19T00:16:44;9.50;;;4.45;;
27794;SDS011;15176;50.844;4.412;2023-06-19T00:19:10;8.15;;;4.15;;
27794;SDS011;15176;50.844;4.412;2023-06-19T00:21:36;7.30;;;3.78;;
27794;SDS011;15176;50.844;4.412;2023-06-19T00:24:02;5.88;;;3.70;;
27794;SDS011;15176;50.844;4.412;2023-06-19T00:26:28;10.95;;;4.30;;
27794;SDS011;15176;50.844;4.412;2023-06-19T00:28:54;11.27;;;3.47;;
27794;SDS011;15176;50.844;4.412;2023-06-19T00:31:20;7.85;;;3.83;;
27794;SDS011;15176;50.844;4.412;2023-06-19T00:33:45;6.38;;;3.70;;
27794;SDS011;15176;50.844;4.412;2023-06-19T00:36:13;6.65;;;3.50;;
27794;SDS011;15176;50.844;4.412;2023-06-19T00:38:40;7.03;;;3.38;;
27794;SDS011;15176;50.844;4.412;2023-06-19T00:41:06;7.25;;;3.45;;
27794;SDS011;15176;50.844;4.412;2023-06-19T00:43:33;7.10;;;3.50;;
27794;SDS011;15176;50.844;4.412;2023-06-19T00:46:00;6.22;;;3.20;;
27794;SDS011;15176;50.844;4.412;2023-06-19T00:48:29;4.55;;;2.72;;
27794;SDS011;15176;50.844;4.412;2023-06-19T00:50:59;6.03;;;3.10;;
27794;SDS011;15176;50.844;4.412;2023-06-19T00:53:25;7.40;;;3.38;;
27794;SDS011;15176;50.844;4.412;2023-06-19T00:55:51;4.88;;;2.78;;
27794;SDS011;15176;50.844;4.412;2023-06-19T00:58:21;7.60;;;3.05;;
27794;SDS011;15176;50.844;4.412;2023-06-19T01:00:48;10.80;;;3.70;;
27794;SDS011;15176;50.844;4.412;2023-06-19T01:03:14;6.63;;;3.50;;
27794;SDS011;15176;50.844;4.412;2023-06-19T01:05:41;7.80;;;3.00;;
27794;SDS011;15176;50.844;4.412;2023-06-19T01:11:15;8.52;;;3.40;;
27794;SDS011;15176;50.844;4.412;2023-06-19T01:13:49;6.57;;;3.40;;
27794;SDS011;15176;50.844;4.412;2023-06-19T01:16:22;7.05;;;3.55;;
27794;SDS011;15176;50.844;4.412;2023-06-19T01:18:49;9.77;;;3.30;;
27794;SDS011;15176;50.844;4.412;2023-06-19T01:21:16;8.98;;;3.60;;
27794;SDS011;15176;50.844;4.412;2023-06-19T01:23:43;6.50;;;3.42;;
27794;SDS011;15176;50.844;4.412;2023-06-19T01:26:09;7.03;;;3.47;;
27794;SDS011;15176;50.844;4.412;2023-06-19T01:28:36;9.20;;;3.40;;
27794;SDS011;15176;50.844;4.412;2023-06-19T01:31:29;7.45;;;3.20;;
27794;SDS011;15176;50.844;4.412;2023-06-19T01:34:03;9.25;;;3.50;;
27794;SDS011;15176;50.844;4.412;2023-06-19T01:36:31;6.20;;;3.55;;
27794;SDS011;15176;50.844;4.412;2023-06-19T01:38:57;6.97;;;3.55;;
27794;SDS011;15176;50.844;4.412;2023-06-19T01:41:24;6.78;;;3.78;;
27794;SDS011;15176;50.844;4.412;2023-06-19T01:43:51;6.60;;;3.40;;
27794;SDS011;15176;50.844;4.412;2023-06-19T01:46:18;6.65;;;3.75;;
27794;SDS011;15176;50.844;4.412;2023-06-19T01:48:44;7.82;;;4.30;;
27794;SDS011;15176;50.844;4.412;2023-06-19T01:51:10;8.07;;;4.40;;
27794;SDS011;15176;50.844;4.412;2023-06-19T01:53:36;8.63;;;3.47;;
27794;SDS011;15176;50.844;4.412;2023-06-19T01:56:02;6.82;;;3.90;;
27794;SDS011;15176;50.844;4.412;2023-06-19T01:58:28;7.90;;;3.65;;
27794;SDS011;15176;50.844;4.412;2023-06-19T02:00:53;13.27;;;3.95;;
27794;SDS011;15176;50.844;4.412;2023-06-19T02:03:19;7.28;;;4.10;;
27794;SDS011;15176;50.844;4.412;2023-06-19T02:05:46;8.30;;;3.50;;
27794;SDS011;15176;50.844;4.412;2023-06-19T02:08:12;10.13;;;3.83;;
27794;SDS011;15176;50.844;4.412;2023-06-19T02:10:37;9.57;;;4.28;;
27794;SDS011;15176;50.844;4.412;2023-06-19T02:13:03;10.00;;;4.32;;
27794;SDS011;15176;50.844;4.412;2023-06-19T02:15:29;7.18;;;3.92;;
27794;SDS011;15176;50.844;4.412;2023-06-19T02:17:55;7.03;;;4.22;;
27794;SDS011;15176;50.844;4.412;2023-06-19T02:20:22;8.05;;;4.18;;
27794;SDS011;15176;50.844;4.412;2023-06-19T02:22:51;8.30;;;3.97;;
27794;SDS011;15176;50.844;4.412;2023-06-19T02:25:17;8.48;;;4.40;;
27794;SDS011;15176;50.844;4.412;2023-06-19T02:27:44;13.07;;;4.30;;
27794;SDS011;15176;50.844;4.412;2023-06-19T02:30:10;9.93;;;4.03;;
27794;SDS011;15176;50.844;4.412;2023-06-19T02:32:36;6.95;;;3.90;;
27794;SDS011;15176;50.844;4.412;2023-06-19T02:35:02;7.68;;;4.32;;
27794;SDS011;15176;50.844;4.412;2023-06-19T02:37:30;8.68;;;4.40;;
27794;SDS011;15176;50.844;4.412;2023-06-19T02:39:55;8.68;;;4.82;;
27794;SDS011;15176;50.844;4.412;2023-06-19T02:42:21;11.75;;;4.68;;
27794;SDS011;15176;50.844;4.412;2023-06-19T02:44:47;11.18;;;4.60;;
27794;SDS011;15176;50.844;4.412;2023-06-19T02:47:12;12.07;;;4.47;;
27794;SDS011;15176;50.844;4.412;2023-06-19T02:49:38;10.68;;;4.78;;
27794;SDS011;15176;50.844;4.412;2023-06-19T02:52:04;8.18;;;4.40;;
27794;SDS011;15176;50.844;4.412;2023-06-19T02:54:30;13.98;;;4.57;;
27794;SDS011;15176;50.844;4.412;2023-06-19T02:56:56;7.55;;;4.57;;
27794;SDS011;15176;50.844;4.412;2023-06-19T02:59:21;12.15;;;4.88;;
27794;SDS011;15176;50.844;4.412;2023-06-19T03:01:47;10.82;;;5.22;;
27794;SDS011;15176;50.844;4.412;2023-06-19T03:04:13;12.50;;;5.80;;
27794;SDS011;15176;50.844;4.412;2023-06-19T03:06:38;11.65;;;6.80;;
27794;SDS011;15176;50.844;4.412;2023-06-19T03:09:05;10.15;;;6.05;;
27794;SDS011;15176;50.844;4.412;2023-06-19T03:11:37;11.20;;;6.32;;
27794;SDS011;15176;50.844;4.412;2023-06-19T03:14:04;14.27;;;7.20;;
27794;SDS011;15176;50.844;4.412;2023-06-19T03:16:33;13.70;;;6.97;;
27794;SDS011;15176;50.844;4.412;2023-06-19T03:18:59;13.80;;;7.50;;
27794;SDS011;15176;50.844;4.412;2023-06-19T03:21:25;14.07;;;8.60;;
27794;SDS011;15176;50.844;4.412;2023-06-19T03:23:51;13.05;;;8.10;;
27794;SDS011;15176;50.844;4.412;2023-06-19T03:26:18;16.02;;;8.00;;
27794;SDS011;15176;50.844;4.412;2023-06-19T03:28:45;11.02;;;7.80;;
27794;SDS011;15176;50.844;4.412;2023-06-19T03:31:14;10.90;;;6.20;;
27794;SDS011;15176;50.844;4.412;2023-06-19T03:33:40;14.10;;;7.70;;
27794;SDS011;15176;50.844;4.412;2023-06-19T03:36:06;12.60;;;6.90;;
27794;SDS011;15176;50.844;4.412;2023-06-19T03:38:32;13.13;;;8.15;;
27794;SDS011;15176;50.844;4.412;2023-06-19T03:40:59;12.27;;;7.70;;
27794;SDS011;15176;50.844;4.412;2023-06-19T03:43:25;14.48;;;9.30;;
27794;SDS011;15176;50.844;4.412;2023-06-19T03:45:51;15.80;;;10.52;;
27794;SDS011;15176;50.844;4.412;2023-06-19T03:48:17;15.55;;;11.13;;
27794;SDS011;15176;50.844;4.412;2023-06-19T03:50:44;15.98;;;11.57;;
27794;SDS011;15176;50.844;4.412;2023-06-19T03:53:09;16.67;;;11.77;;
27794;SDS011;15176;50.844;4.412;2023-06-19T03:55:35;16.50;;;11.02;;
27794;SDS011;15176;50.844;4.412;2023-06-19T03:58:01;18.98;;;11.80;;
27794;SDS011;15176;50.844;4.412;2023-06-19T04:00:27;17.25;;;12.15;;
27794;SDS011;15176;50.844;4.412;2023-06-19T04:02:52;18.00;;;12.82;;
27794;SDS011;15176;50.844;4.412;2023-06-19T04:05:18;18.38;;;11.85;;
27794;SDS011;15176;50.844;4.412;2023-06-19T04:07:45;12.68;;;9.15;;
27794;SDS011;15176;50.844;4.412;2023-06-19T04:10:10;16.60;;;11.05;;
27794;SDS011;15176;50.844;4.412;2023-06-19T04:12:37;20.02;;;11.65;;
27794;SDS011;15176;50.844;4.412;2023-06-19T04:15:03;16.20;;;11.25;;
27794;SDS011;15176;50.844;4.412;2023-06-19T04:17:29;18.38;;;11.52;;
27794;SDS011;15176;50.844;4.412;2023-06-19T04:19:54;16.15;;;11.38;;
27794;SDS011;15176;50.844;4.412;2023-06-19T04:22:20;16.77;;;10.95;;
27794;SDS011;15176;50.844;4.412;2023-06-19T04:24:46;30.58;;;23.80;;
27794;SDS011;15176;50.844;4.412;2023-06-19T04:27:11;14.20;;;10.43;;
27794;SDS011;15176;50.844;4.412;2023-06-19T04:29:37;14.50;;;10.25;;
27794;SDS011;15176;50.844;4.412;2023-06-19T04:32:03;14.60;;;9.77;;
27794;SDS011;15176;50.844;4.412;2023-06-19T04:34:36;14.85;;;9.27;;
27794;SDS011;15176;50.844;4.412;2023-06-19T04:37:03;13.13;;;9.18;;
27794;SDS011;15176;50.844;4.412;2023-06-19T04:39:29;14.45;;;9.77;;
27794;SDS011;15176;50.844;4.412;2023-06-19T04:41:55;16.17;;;9.80;;
27794;SDS011;15176;50.844;4.412;2023-06-19T04:44:20;15.95;;;11.23;;
27794;SDS011;15176;50.844;4.412;2023-06-19T04:46:47;18.35;;;10.93;;
27794;SDS011;15176;50.844;4.412;2023-06-19T04:49:12;16.65;;;11.18;;
27794;SDS011;15176;50.844;4.412;2023-06-19T04:51:41;15.63;;;10.98;;
27794;SDS011;15176;50.844;4.412;2023-06-19T04:54:07;18.63;;;11.82;;
27794;SDS011;15176;50.844;4.412;2023-06-19T04:56:32;17.90;;;11.55;;
27794;SDS011;15176;50.844;4.412;2023-06-19T04:58:59;16.70;;;11.48;;
27794;SDS011;15176;50.844;4.412;2023-06-19T05:01:26;17.85;;;11.80;;
27794;SDS011;15176;50.844;4.412;2023-06-19T05:03:55;17.88;;;11.90;;
27794;SDS011;15176;50.844;4.412;2023-06-19T05:06:25;17.10;;;11.00;;
27794;SDS011;15176;50.844;4.412;2023-06-19T05:08:51;18.13;;;11.63;;
27794;SDS011;15176;50.844;4.412;2023-06-19T05:11:17;18.63;;;10.68;;
27794;SDS011;15176;50.844;4.412;2023-06-19T05:13:43;16.80;;;10.82;;
27794;SDS011;15176;50.844;4.412;2023-06-19T05:16:10;15.05;;;10.63;;
27794;SDS011;15176;50.844;4.412;2023-06-19T05:18:41;16.60;;;11.68;;
27794;SDS011;15176;50.844;4.412;2023-06-19T05:21:08;18.80;;;10.65;;
27794;SDS011;15176;50.844;4.412;2023-06-19T05:23:37;15.38;;;11.00;;
27794;SDS011;15176;50.844;4.412;2023-06-19T05:26:06;16.95;;;11.48;;
27794;SDS011;15176;50.844;4.412;2023-06-19T05:28:32;19.20;;;10.90;;
27794;SDS011;15176;50.844;4.412;2023-06-19T05:30:57;23.27;;;11.32;;
27794;SDS011;15176;50.844;4.412;2023-06-19T05:33:23;18.52;;;12.50;;
27794;SDS011;15176;50.844;4.412;2023-06-19T05:35:49;17.40;;;12.52;;
27794;SDS011;15176;50.844;4.412;2023-06-19T05:38:19;22.67;;;13.63;;
27794;SDS011;15176;50.844;4.412;2023-06-19T05:40:45;21.42;;;13.73;;
27794;SDS011;15176;50.844;4.412;2023-06-19T05:43:11;17.83;;;11.20;;
27794;SDS011;15176;50.844;4.412;2023-06-19T05:45:37;16.20;;;11.20;;
27794;SDS011;15176;50.844;4.412;2023-06-19T05:48:03;21.70;;;12.18;;
27794;SDS011;15176;50.844;4.412;2023-06-19T05:50:29;19.77;;;12.55;;
27794;SDS011;15176;50.844;4.412;2023-06-19T05:52:56;17.55;;;12.00;;
27794;SDS011;15176;50.844;4.412;2023-06-19T05:55:21;17.63;;;12.25;;
27794;SDS011;15176;50.844;4.412;2023-06-19T05:57:49;19.23;;;13.35;;
27794;SDS011;15176;50.844;4.412;2023-06-19T06:00:16;19.27;;;13.20;;
27794;SDS011;15176;50.844;4.412;2023-06-19T06:02:42;20.52;;;12.68;;
27794;SDS011;15176;50.844;4.412;2023-06-19T06:05:08;21.67;;;14.23;;
27794;SDS011;15176;50.844;4.412;2023-06-19T06:07:34;23.60;;;14.27;;
27794;SDS011;15176;50.844;4.412;2023-06-19T06:10:00;18.52;;;12.15;;
27794;SDS011;15176;50.844;4.412;2023-06-19T06:12:25;21.45;;;14.48;;
27794;SDS011;15176;50.844;4.412;2023-06-19T06:14:51;22.13;;;13.93;;
27794;SDS011;15176;50.844;4.412;2023-06-19T06:17:17;21.77;;;14.32;;
27794;SDS011;15176;50.844;4.412;2023-06-19T06:19:42;21.75;;;15.18;;
27794;SDS011;15176;50.844;4.412;2023-06-19T06:22:08;22.95;;;14.20;;
27794;SDS011;15176;50.844;4.412;2023-06-19T06:24:37;21.98;;;14.02;;
27794;SDS011;15176;50.844;4.412;2023-06-19T06:27:03;19.45;;;14.57;;
27794;SDS011;15176;50.844;4.412;2023-06-19T06:29:30;24.25;;;14.85;;
27794;SDS011;15176;50.844;4.412;2023-06-19T06:32:02;23.60;;;14.93;;
27794;SDS011;15176;50.844;4.412;2023-06-19T06:34:35;23.38;;;15.00;;
27794;SDS011;15176;50.844;4.412;2023-06-19T06:37:01;24.27;;;14.88;;
27794;SDS011;15176;50.844;4.412;2023-06-19T06:39:27;19.83;;;14.93;;
27794;SDS011;15176;50.844;4.412;2023-06-19T06:41:53;25.38;;;15.98;;
27794;SDS011;15176;50.844;4.412;2023-06-19T06:44:19;22.85;;;15.13;;
27794;SDS011;15176;50.844;4.412;2023-06-19T06:46:45;22.95;;;13.30;;
27794;SDS011;15176;50.844;4.412;2023-06-19T06:49:11;22.50;;;15.15;;
27794;SDS011;15176;50.844;4.412;2023-06-19T06:51:37;20.73;;;14.07;;
27794;SDS011;15176;50.844;4.412;2023-06-19T06:54:03;19.42;;;13.52;;
27794;SDS011;15176;50.844;4.412;2023-06-19T06:56:28;20.35;;;12.65;;
27794;SDS011;15176;50.844;4.412;2023-06-19T06:58:55;18.15;;;12.32;;
27794;SDS011;15176;50.844;4.412;2023-06-19T07:01:20;15.35;;;10.63;;
27794;SDS011;15176;50.844;4.412;2023-06-19T07:03:46;18.58;;;11.95;;
27794;SDS011;15176;50.844;4.412;2023-06-19T07:06:13;17.95;;;11.95;;
27794;SDS011;15176;50.844;4.412;2023-06-19T07:08:38;19.08;;;12.52;;
27794;SDS011;15176;50.844;4.412;2023-06-19T07:11:06;16.85;;;11.15;;
27794;SDS011;15176;50.844;4.412;2023-06-19T07:13:32;18.45;;;11.40;;
27794;SDS011;15176;50.844;4.412;2023-06-19T07:16:00;19.77;;;12.32;;
27794;SDS011;15176;50.844;4.412;2023-06-19T07:18:26;16.48;;;11.48;;
27794;SDS011;15176;50.844;4.412;2023-06-19T07:20:53;16.40;;;11.20;;
27794;SDS011;15176;50.844;4.412;2023-06-19T07:23:19;22.48;;;11.73;;
27794;SDS011;15176;50.844;4.412;2023-06-19T07:25:48;16.65;;;10.50;;
27794;SDS011;15176;50.844;4.412;2023-06-19T07:28:14;19.52;;;12.07;;
27794;SDS011;15176;50.844;4.412;2023-06-19T07:30:43;23.67;;;11.15;;
27794;SDS011;15176;50.844;4.412;2023-06-19T07:33:12;15.00;;;10.25;;
27794;SDS011;15176;50.844;4.412;2023-06-19T07:35:38;16.27;;;10.70;;
27794;SDS011;15176;50.844;4.412;2023-06-19T07:38:07;15.35;;;8.90;;
27794;SDS011;15176;50.844;4.412;2023-06-19T07:40:33;17.20;;;10.45;;
27794;SDS011;15176;50.844;4.412;2023-06-19T07:42:58;15.70;;;10.48;;
27794;SDS011;15176;50.844;4.412;2023-06-19T07:45:26;20.33;;;11.32;;
27794;SDS011;15176;50.844;4.412;2023-06-19T07:47:55;19.13;;;10.05;;
27794;SDS011;15176;50.844;4.412;2023-06-19T07:50:24;16.05;;;9.98;;
27794;SDS011;15176;50.844;4.412;2023-06-19T07:52:50;16.25;;;9.45;;
27794;SDS011;15176;50.844;4.412;2023-06-19T07:55:17;19.98;;;10.93;;
27794;SDS011;15176;50.844;4.412;2023-06-19T07:57:43;16.10;;;11.02;;
27794;SDS011;15176;50.844;4.412;2023-06-19T08:00:09;20.48;;;11.52;;
27794;SDS011;15176;50.844;4.412;2023-06-19T08:02:38;20.00;;;11.07;;
27794;SDS011;15176;50.844;4.412;2023-06-19T08:05:05;16.25;;;10.60;;
27794;SDS011;15176;50.844;4.412;2023-06-19T08:07:33;13.68;;;8.55;;
27794;SDS011;15176;50.844;4.412;2023-06-19T08:10:00;16.02;;;10.07;;
27794;SDS011;15176;50.844;4.412;2023-06-19T08:12:26;17.13;;;9.75;;
27794;SDS011;15176;50.844;4.412;2023-06-19T08:14:52;16.38;;;9.90;;
27794;SDS011;15176;50.844;4.412;2023-06-19T08:17:17;13.48;;;8.98;;
27794;SDS011;15176;50.844;4.412;2023-06-19T08:19:43;14.55;;;9.38;;
27794;SDS011;15176;50.844;4.412;2023-06-19T08:22:09;16.63;;;10.10;;
27794;SDS011;15176;50.844;4.412;2023-06-19T08:24:36;15.38;;;9.27;;
27794;SDS011;15176;50.844;4.412;2023-06-19T08:27:03;20.15;;;9.93;;
27794;SDS011;15176;50.844;4.412;2023-06-19T08:29:30;12.55;;;8.30;;
27794;SDS011;15176;50.844;4.412;2023-06-19T08:31:55;16.00;;;9.00;;
27794;SDS011;15176;50.844;4.412;2023-06-19T08:34:21;11.65;;;7.30;;
27794;SDS011;15176;50.844;4.412;2023-06-19T08:36:47;14.40;;;8.82;;
27794;SDS011;15176;50.844;4.412;2023-06-19T08:39:13;18.50;;;8.80;;
27794;SDS011;15176;50.844;4.412;2023-06-19T08:41:41;16.75;;;8.15;;
27794;SDS011;15176;50.844;4.412;2023-06-19T08:44:08;18.90;;;9.20;;
27794;SDS011;15176;50.844;4.412;2023-06-19T08:46:34;16.38;;;8.77;;
27794;SDS011;15176;50.844;4.412;2023-06-19T08:49:07;15.38;;;8.15;;
27794;SDS011;15176;50.844;4.412;2023-06-19T08:51:35;13.25;;;8.60;;
27794;SDS011;15176;50.844;4.412;2023-06-19T08:54:02;14.40;;;7.97;;
27794;SDS011;15176;50.844;4.412;2023-06-19T08:56:29;15.63;;;7.70;;
27794;SDS011;15176;50.844;4.412;2023-06-19T08:59:15;16.85;;;7.97;;
27794;SDS011;15176;50.844;4.412;2023-06-19T09:01:52;13.45;;;8.38;;
27794;SDS011;15176;50.844;4.412;2023-06-19T09:04:23;15.55;;;7.95;;
27794;SDS011;15176;50.844;4.412;2023-06-19T09:09:43;12.98;;;7.82;;
27794;SDS011;15176;50.844;4.412;2023-06-19T09:12:18;15.00;;;8.13;;
27794;SDS011;15176;50.844;4.412;2023-06-19T09:14:44;14.73;;;8.00;;
27794;SDS011;15176;50.844;4.412;2023-06-19T09:17:13;12.00;;;7.88;;
27794;SDS011;15176;50.844;4.412;2023-06-19T09:19:50;14.63;;;8.48;;
27794;SDS011;15176;50.844;4.412;2023-06-19T09:22:18;13.80;;;8.40;;
27794;SDS011;15176;50.844;4.412;2023-06-19T09:24:46;13.77;;;8.07;;
27794;SDS011;15176;50.844;4.412;2023-06-19T09:27:13;12.70;;;7.13;;
27794;SDS011;15176;50.844;4.412;2023-06-19T09:29:44;13.50;;;8.20;;
27794;SDS011;15176;50.844;4.412;2023-06-19T09:32:20;14.45;;;7.55;;
27794;SDS011;15176;50.844;4.412;2023-06-19T09:34:54;13.77;;;7.68;;
27794;SDS011;15176;50.844;4.412;2023-06-19T09:37:32;19.00;;;7.70;;
27794;SDS011;15176;50.844;4.412;2023-06-19T09:40:02;13.73;;;7.68;;
27794;SDS011;15176;50.844;4.412;2023-06-19T09:42:38;15.98;;;7.53;;
27794;SDS011;15176;50.844;4.412;2023-06-19T09:45:09;11.85;;;7.00;;
27794;SDS011;15176;50.844;4.412;2023-06-19T09:47:44;16.70;;;6.63;;
27794;SDS011;15176;50.844;4.412;2023-06-19T09:50:12;13.70;;;7.03;;
27794;SDS011;15176;50.844;4.412;2023-06-19T09:52:40;14.07;;;7.40;;
27794;SDS011;15176;50.844;4.412;2023-06-19T09:55:07;11.88;;;7.93;;
27794;SDS011;15176;50.844;4.412;2023-06-19T09:57:35;13.15;;;7.97;;
27794;SDS011;15176;50.844;4.412;2023-06-19T10:00:04;11.57;;;7.03;;
27794;SDS011;15176;50.844;4.412;2023-06-19T10:02:47;14.57;;;8.10;;
27794;SDS011;15176;50.844;4.412;2023-06-19T10:05:14;12.43;;;7.43;;
27794;SDS011;15176;50.844;4.412;2023-06-19T10:07:41;12.02;;;7.95;;
27794;SDS011;15176;50.844;4.412;2023-06-19T10:10:09;15.30;;;7.65;;
27794;SDS011;15176;50.844;4.412;2023-06-19T10:12:39;15.27;;;7.93;;
27794;SDS011;15176;50.844;4.412;2023-06-19T10:17:51;12.93;;;7.25;;
27794;SDS011;15176;50.844;4.412;2023-06-19T10:20:22;13.98;;;7.28;;
27794;SDS011;15176;50.844;4.412;2023-06-19T10:23:05;11.88;;;6.88;;
27794;SDS011;15176;50.844;4.412;2023-06-19T10:25:43;10.68;;;6.55;;
27794;SDS011;15176;50.844;4.412;2023-06-19T10:28:19;11.35;;;6.95;;
27794;SDS011;15176;50.844;4.412;2023-06-19T10:33:29;13.15;;;7.55;;
27794;SDS011;15176;50.844;4.412;2023-06-19T10:36:12;12.35;;;7.50;;
27794;SDS011;15176;50.844;4.412;2023-06-19T10:38:42;12.38;;;7.10;;
27794;SDS011;15176;50.844;4.412;2023-06-19T10:41:15;14.48;;;6.55;;
27794;SDS011;15176;50.844;4.412;2023-06-19T10:43:51;11.82;;;6.85;;
27794;SDS011;15176;50.844;4.412;2023-06-19T10:46:18;14.38;;;6.85;;
27794;SDS011;15176;50.844;4.412;2023-06-19T10:48:46;16.92;;;7.20;;
27794;SDS011;15176;50.844;4.412;2023-06-19T10:51:12;10.38;;;6.82;;
27794;SDS011;15176;50.844;4.412;2023-06-19T10:53:43;13.85;;;5.93;;
27794;SDS011;15176;50.844;4.412;2023-06-19T10:56:09;11.50;;;6.90;;
27794;SDS011;15176;50.844;4.412;2023-06-19T10:58:35;12.00;;;7.07;;
27794;SDS011;15176;50.844;4.412;2023-06-19T11:01:00;13.32;;;7.65;;
27794;SDS011;15176;50.844;4.412;2023-06-19T11:03:26;14.73;;;6.72;;
27794;SDS011;15176;50.844;4.412;2023-06-19T11:05:54;19.08;;;7.03;;
27794;SDS011;15176;50.844;4.412;2023-06-19T11:08:25;15.38;;;7.65;;
27794;SDS011;15176;50.844;4.412;2023-06-19T11:10:51;10.75;;;6.85;;
27794;SDS011;15176;50.844;4.412;2023-06-19T11:13:22;11.82;;;6.50;;
27794;SDS011;15176;50.844;4.412;2023-06-19T11:15:49;13.70;;;7.75;;
27794;SDS011;15176;50.844;4.412;2023-06-19T11:18:16;14.77;;;7.30;;
27794;SDS011;15176;50.844;4.412;2023-06-19T11:20:43;11.85;;;7.15;;
27794;SDS011;15176;50.844;4.412;2023-06-19T11:23:14;13.02;;;7.20;;
27794;SDS011;15176;50.844;4.412;2023-06-19T11:25:40;14.45;;;7.88;;
27794;SDS011;15176;50.844;4.412;2023-06-19T11:28:11;12.23;;;7.65;;
27794;SDS011;15176;50.844;4.412;2023-06-19T11:30:42;13.70;;;7.50;;
27794;SDS011;15176;50.844;4.412;2023-06-19T11:33:21;15.48;;;7.68;;
27794;SDS011;15176;50.844;4.412;2023-06-19T11:35:48;10.55;;;6.75;;
27794;SDS011;15176;50.844;4.412;2023-06-19T11:38:20;15.07;;;6.97;;
27794;SDS011;15176;50.844;4.412;2023-06-19T11:40:50;14.30;;;6.70;;
27794;SDS011;15176;50.844;4.412;2023-06-19T11:45:51;13.75;;;6.53;;
27794;SDS011;15176;50.844;4.412;2023-06-19T11:48:24;14.15;;;6.03;;
27794;SDS011;15176;50.844;4.412;2023-06-19T11:50:58;13.02;;;6.20;;
27794;SDS011;15176;50.844;4.412;2023-06-19T11:53:24;10.70;;;5.55;;
27794;SDS011;15176;50.844;4.412;2023-06-19T11:55:50;11.38;;;6.18;;
27794;SDS011;15176;50.844;4.412;2023-06-19T11:58:17;11.50;;;6.05;;
27794;SDS011;15176;50.844;4.412;2023-06-19T12:00:44;10.75;;;5.75;;
27794;SDS011;15176;50.844;4.412;2023-06-19T12:03:10;9.48;;;5.50;;
27794;SDS011;15176;50.844;4.412;2023-06-19T12:05:38;11.50;;;5.50;;
27794;SDS011;15176;50.844;4.412;2023-06-19T12:08:04;12.13;;;5.68;;
27794;SDS011;15176;50.844;4.412;2023-06-19T12:10:30;10.00;;;5.20;;
27794;SDS011;15176;50.844;4.412;2023-06-19T12:12:57;13.35;;;6.13;;
27794;SDS011;15176;50.844;4.412;2023-06-19T12:15:25;10.35;;;5.70;;
27794;SDS011;15176;50.844;4.412;2023-06-19T12:17:51;9.52;;;5.13;;
27794;SDS011;15176;50.844;4.412;2023-06-19T12:20:18;9.95;;;5.13;;
27794;SDS011;15176;50.844;4.412;2023-06-19T12:22:45;10.98;;;5.43;;
27794;SDS011;15176;50.844;4.412;2023-06-19T12:25:12;9.85;;;5.28;;
27794;SDS011;15176;50.844;4.412;2023-06-19T12:27:38;9.68;;;5.07;;
27794;SDS011;15176;50.844;4.412;2023-06-19T12:30:04;12.15;;;5.15;;
27794;SDS011;15176;50.844;4.412;2023-06-19T12:32:30;14.77;;;7.68;;
27794;SDS011;15176;50.844;4.412;2023-06-19T12:34:56;9.93;;;4.95;;
27794;SDS011;15176;50.844;4.412;2023-06-19T12:37:22;9.30;;;5.05;;
27794;SDS011;15176;50.844;4.412;2023-06-19T12:39:49;8.52;;;5.40;;
27794;SDS011;15176;50.844;4.412;2023-06-19T12:42:18;10.68;;;5.05;;
27794;SDS011;15176;50.844;4.412;2023-06-19T12:44:44;10.85;;;5.18;;
27794;SDS011;15176;50.844;4.412;2023-06-19T12:47:11;11.05;;;5.38;;
27794;SDS011;15176;50.844;4.412;2023-06-19T12:49:37;13.02;;;5.13;;
27794;SDS011;15176;50.844;4.412;2023-06-19T12:52:02;7.32;;;4.70;;
27794;SDS011;15176;50.844;4.412;2023-06-19T12:54:30;10.38;;;4.60;;
27794;SDS011;15176;50.844;4.412;2023-06-19T12:56:56;10.63;;;4.72;;
27794;SDS011;15176;50.844;4.412;2023-06-19T12:59:22;94.25;;;15.30;;
27794;SDS011;15176;50.844;4.412;2023-06-19T13:01:48;20.20;;;6.18;;
27794;SDS011;15176;50.844;4.412;2023-06-19T13:04:17;10.32;;;5.57;;
27794;SDS011;15176;50.844;4.412;2023-06-19T13:06:44;13.63;;;5.60;;
27794;SDS011;15176;50.844;4.412;2023-06-19T13:09:10;10.57;;;5.35;;
27794;SDS011;15176;50.844;4.412;2023-06-19T13:11:36;8.43;;;5.00;;
27794;SDS011;15176;50.844;4.412;2023-06-19T13:14:02;8.35;;;4.80;;
27794;SDS011;15176;50.844;4.412;2023-06-19T13:16:27;9.98;;;5.10;;
27794;SDS011;15176;50.844;4.412;2023-06-19T13:18:53;7.70;;;4.88;;
27794;SDS011;15176;50.844;4.412;2023-06-19T13:21:19;9.20;;;4.93;;
27794;SDS011;15176;50.844;4.412;2023-06-19T13:23:45;11.68;;;5.25;;
27794;SDS011;15176;50.844;4.412;2023-06-19T13:26:11;9.77;;;5.10;;
27794;SDS011;15176;50.844;4.412;2023-06-19T13:28:36;11.73;;;5.03;;
27794;SDS011;15176;50.844;4.412;2023-06-19T13:31:05;8.05;;;5.20;;
27794;SDS011;15176;50.844;4.412;2023-06-19T13:33:30;11.50;;;5.40;;
27794;SDS011;15176;50.844;4.412;2023-06-19T13:35:56;8.48;;;5.18;;
27794;SDS011;15176;50.844;4.412;2023-06-19T13:38:22;9.23;;;5.00;;
27794;SDS011;15176;50.844;4.412;2023-06-19T13:40:48;8.15;;;4.95;;
27794;SDS011;15176;50.844;4.412;2023-06-19T13:43:14;8.27;;;4.40;;
27794;SDS011;15176;50.844;4.412;2023-06-19T13:45:41;9.32;;;4.88;;
27794;SDS011;15176;50.844;4.412;2023-06-19T13:48:07;9.13;;;4.60;;
27794;SDS011;15176;50.844;4.412;2023-06-19T13:50:33;7.43;;;4.40;;
27794;SDS011;15176;50.844;4.412;2023-06-19T13:52:59;10.60;;;4.65;;
27794;SDS011;15176;50.844;4.412;2023-06-19T13:55:27;7.28;;;4.38;;
27794;SDS011;15176;50.844;4.412;2023-06-19T13:57:54;11.35;;;4.78;;
27794;SDS011;15176;50.844;4.412;2023-06-19T14:00:20;10.45;;;5.57;;
27794;SDS011;15176;50.844;4.412;2023-06-19T14:02:45;6.90;;;4.05;;
27794;SDS011;15176;50.844;4.412;2023-06-19T14:05:11;10.60;;;4.78;;
27794;SDS011;15176;50.844;4.412;2023-06-19T14:07:40;9.20;;;4.55;;
27794;SDS011;15176;50.844;4.412;2023-06-19T14:10:07;7.30;;;4.68;;
27794;SDS011;15176;50.844;4.412;2023-06-19T14:12:33;7.65;;;4.13;;
27794;SDS011;15176;50.844;4.412;2023-06-19T14:15:00;6.93;;;4.50;;
27794;SDS011;15176;50.844;4.412;2023-06-19T14:17:26;7.43;;;4.30;;
27794;SDS011;15176;50.844;4.412;2023-06-19T14:19:52;7.20;;;4.47;;
27794;SDS011;15176;50.844;4.412;2023-06-19T14:22:22;7.55;;;4.25;;
27794;SDS011;15176;50.844;4.412;2023-06-19T14:24:47;7.95;;;4.22;;
27794;SDS011;15176;50.844;4.412;2023-06-19T14:27:14;10.07;;;4.03;;
27794;SDS011;15176;50.844;4.412;2023-06-19T14:29:43;8.85;;;4.43;;
27794;SDS011;15176;50.844;4.412;2023-06-19T14:32:10;13.35;;;4.50;;
27794;SDS011;15176;50.844;4.412;2023-06-19T14:34:35;9.02;;;4.40;;
27794;SDS011;15176;50.844;4.412;2023-06-19T14:37:01;8.52;;;4.03;;
27794;SDS011;15176;50.844;4.412;2023-06-19T14:39:27;7.95;;;4.10;;
27794;SDS011;15176;50.844;4.412;2023-06-19T14:41:52;8.27;;;3.97;;
27794;SDS011;15176;50.844;4.412;2023-06-19T14:44:18;7.28;;;3.80;;
27794;SDS011;15176;50.844;4.412;2023-06-19T14:46:44;10.73;;;3.78;;
27794;SDS011;15176;50.844;4.412;2023-06-19T14:49:10;7.80;;;3.72;;